Cape May Point, New Jersey
Current Conditions -  °F | °C
As of 11:35 AM on Friday 24 Oct 2014 (Local Time) from KWWD Reporting Station
Broken Clouds Broken Clouds  
Wind Chill: 63°   Ceiling: 3900
Heat Index: 63°   Visibility: 10mi
Dew Point: 45°   Wind: 14mph
Humidity: 52%   Direction: 330°NNW
Pressure: 29.88"   Gusts: 17mph
Location:  38.94°N, 74.97°W
Report Text: KWWD 241535Z AUTO 33012G15KT 10SM BKN039 17/07 A2988 RMK AO1
Loading
Personal Weather Stations






























Interactive Weather Map
Tropical Storm Tracking
New forecast layout! Learn more

10-Day Weather Forecast

Advertisements
Track Severe Weather on mobile